createdAt,value
2023-07-10T00:01:31.969Z,3.80
2023-07-10T00:03:59.207Z,3.80
2023-07-10T00:06:26.199Z,3.78
2023-07-10T00:08:53.251Z,3.70
2023-07-10T00:11:32.202Z,3.47
2023-07-10T00:13:59.456Z,3.97
2023-07-10T00:16:28.315Z,3.30
2023-07-10T00:18:55.736Z,3.60
2023-07-10T00:21:22.716Z,3.40
2023-07-10T00:23:49.894Z,3.63
2023-07-10T00:26:20.590Z,3.15
2023-07-10T00:28:52.186Z,3.42
2023-07-10T00:31:19.689Z,3.55
2023-07-10T00:33:48.769Z,3.28
2023-07-10T00:36:31.123Z,3.10
2023-07-10T00:41:35.378Z,2.97
2023-07-10T00:44:04.495Z,3.20
2023-07-10T00:46:57.753Z,3.33
2023-07-10T00:49:25.087Z,2.70
2023-07-10T00:52:01.489Z,3.08
2023-07-10T00:54:37.455Z,3.05
2023-07-10T00:57:10.843Z,2.95
2023-07-10T00:59:41.032Z,3.20
2023-07-10T01:02:13.762Z,3.05
2023-07-10T01:04:43.486Z,2.90
2023-07-10T01:07:16.912Z,2.90
2023-07-10T01:09:55.193Z,2.90
2023-07-10T01:12:22.175Z,2.70
2023-07-10T01:14:49.128Z,2.78
2023-07-10T01:17:16.083Z,2.97
2023-07-10T01:19:46.912Z,2.70
2023-07-10T01:22:15.078Z,3.00
2023-07-10T01:24:42.860Z,2.80
2023-07-10T01:27:13.695Z,2.60
2023-07-10T01:29:48.432Z,2.90
2023-07-10T01:32:20.935Z,3.40
2023-07-10T01:34:55.443Z,2.50
2023-07-10T01:37:22.323Z,2.65
2023-07-10T01:39:52.094Z,2.72
2023-07-10T01:42:19.274Z,2.50
2023-07-10T01:44:48.496Z,2.40
2023-07-10T01:47:16.872Z,2.72
2023-07-10T01:49:53.217Z,2.83
2023-07-10T01:52:22.154Z,2.70
2023-07-10T01:54:49.250Z,2.70
2023-07-10T01:57:17.991Z,2.60
2023-07-10T01:59:45.564Z,3.00
2023-07-10T02:02:12.490Z,2.72
2023-07-10T02:04:39.366Z,2.50
2023-07-10T02:07:06.254Z,2.40
2023-07-10T02:09:33.555Z,2.90
2023-07-10T02:12:01.445Z,2.22
2023-07-10T02:14:29.166Z,2.33
2023-07-10T02:16:56.405Z,2.30
2023-07-10T02:19:23.564Z,2.10
2023-07-10T02:21:50.513Z,2.47
2023-07-10T02:24:17.364Z,2.00
2023-07-10T02:26:44.236Z,2.10
2023-07-10T02:29:11.157Z,2.40
2023-07-10T02:31:38.255Z,2.40
2023-07-10T02:34:05.397Z,2.20
2023-07-10T02:36:32.461Z,2.00
2023-07-10T02:38:59.296Z,1.80
2023-07-10T02:41:26.373Z,1.90
2023-07-10T02:43:53.258Z,1.90
2023-07-10T02:46:20.193Z,2.05
2023-07-10T02:48:47.120Z,1.83
2023-07-10T02:51:14.319Z,2.00
2023-07-10T02:53:41.580Z,2.08
2023-07-10T02:56:08.592Z,1.92
2023-07-10T02:58:35.715Z,2.00
2023-07-10T03:01:04.103Z,1.45
2023-07-10T03:03:31.730Z,1.50
2023-07-10T03:06:01.321Z,1.58
2023-07-10T03:08:29.574Z,2.10
2023-07-10T03:11:04.850Z,1.70
2023-07-10T03:13:32.143Z,2.00
2023-07-10T03:16:04.729Z,1.60
2023-07-10T03:18:31.955Z,1.88
2023-07-10T03:20:58.847Z,1.88
2023-07-10T03:23:25.830Z,1.40
2023-07-10T03:25:53.083Z,1.67
2023-07-10T03:28:20.010Z,1.80
2023-07-10T03:30:47.066Z,1.30
2023-07-10T03:33:15.615Z,1.60
2023-07-10T03:35:43.212Z,2.00
2023-07-10T03:38:10.182Z,1.40
2023-07-10T03:40:37.207Z,1.67
2023-07-10T03:43:04.565Z,1.77
2023-07-10T03:45:32.635Z,2.10
2023-07-10T03:47:59.533Z,1.52
2023-07-10T03:50:26.561Z,1.73
2023-07-10T03:52:53.606Z,1.90
2023-07-10T03:55:20.514Z,2.10
2023-07-10T03:57:47.376Z,2.10
2023-07-10T04:00:14.999Z,2.15
2023-07-10T04:02:41.920Z,2.13
2023-07-10T04:05:09.056Z,2.15
2023-07-10T04:07:35.964Z,2.10
2023-07-10T04:10:03.935Z,2.10
2023-07-10T04:12:33.451Z,1.92
2023-07-10T04:15:00.620Z,2.03
2023-07-10T04:17:27.911Z,1.90
2023-07-10T04:19:54.771Z,2.25
2023-07-10T04:22:21.667Z,1.77
2023-07-10T04:24:48.589Z,1.67
2023-07-10T04:27:15.566Z,1.77
2023-07-10T04:29:42.555Z,1.90
2023-07-10T04:32:10.655Z,1.80
2023-07-10T04:34:37.560Z,1.88
2023-07-10T04:37:04.575Z,1.73
2023-07-10T04:39:31.517Z,1.92
2023-07-10T04:41:58.372Z,1.88
2023-07-10T04:44:25.193Z,1.83
2023-07-10T04:46:52.275Z,2.00
2023-07-10T04:49:20.898Z,2.00
2023-07-10T04:51:48.270Z,2.10
2023-07-10T04:54:15.168Z,2.13
2023-07-10T04:56:42.047Z,1.92
2023-07-10T04:59:08.853Z,2.13
2023-07-10T05:01:35.887Z,2.40
2023-07-10T05:04:03.916Z,2.13
2023-07-10T05:06:30.978Z,2.22
2023-07-10T05:09:02.044Z,2.80
2023-07-10T05:11:31.296Z,2.72
2023-07-10T05:13:59.013Z,2.60
2023-07-10T05:16:26.200Z,2.72
2023-07-10T05:18:53.276Z,2.80
2023-07-10T05:21:20.293Z,3.40
2023-07-10T05:23:47.386Z,2.70
2023-07-10T05:26:16.699Z,2.67
2023-07-10T05:28:43.606Z,2.53
2023-07-10T05:31:12.323Z,2.80
2023-07-10T05:33:41.042Z,2.60
2023-07-10T05:36:11.605Z,3.20
2023-07-10T05:38:39.525Z,3.13
2023-07-10T05:41:07.824Z,3.17
2023-07-10T05:43:35.779Z,2.90
2023-07-10T05:46:04.068Z,2.47
2023-07-10T05:48:32.015Z,2.38
2023-07-10T05:50:59.206Z,2.78
2023-07-10T05:53:26.774Z,2.80
2023-07-10T05:55:55.898Z,2.90
2023-07-10T05:58:25.766Z,2.70
2023-07-10T06:00:57.220Z,2.80
2023-07-10T06:03:24.996Z,2.40
2023-07-10T06:06:00.959Z,2.47
2023-07-10T06:08:30.162Z,2.42
2023-07-10T06:10:57.810Z,1.83
2023-07-10T06:13:25.371Z,2.55
2023-07-10T06:15:55.417Z,2.28
2023-07-10T06:18:23.171Z,2.50
2023-07-10T06:20:58.514Z,2.28
2023-07-10T06:23:27.788Z,2.30
2023-07-10T06:25:55.472Z,2.70
2023-07-10T06:28:23.239Z,2.40
2023-07-10T06:31:02.780Z,2.42
2023-07-10T06:33:31.618Z,2.38
2023-07-10T06:35:59.314Z,2.55
2023-07-10T06:38:26.606Z,2.05
2023-07-10T06:40:53.993Z,2.40
2023-07-10T06:43:22.029Z,2.65
2023-07-10T06:45:49.268Z,2.30
2023-07-10T06:48:16.825Z,2.45
2023-07-10T06:50:54.536Z,2.58
2023-07-10T06:53:27.332Z,2.30
2023-07-10T06:55:58.163Z,2.85
2023-07-10T06:58:25.585Z,2.28
2023-07-10T07:00:53.159Z,2.35
2023-07-10T07:03:20.396Z,2.65
2023-07-10T07:05:48.904Z,2.67
2023-07-10T07:08:18.927Z,2.50
2023-07-10T07:10:47.338Z,2.80
2023-07-10T07:13:14.786Z,2.65
2023-07-10T07:15:41.735Z,2.58
2023-07-10T07:18:08.687Z,2.40
2023-07-10T07:20:35.618Z,2.55
2023-07-10T07:23:02.692Z,2.50
2023-07-10T07:25:30.112Z,2.50
2023-07-10T07:28:00.880Z,2.50
2023-07-10T07:30:29.217Z,2.65
2023-07-10T07:32:57.553Z,2.72
2023-07-10T07:35:24.506Z,2.55
2023-07-10T07:37:51.422Z,2.72
2023-07-10T07:40:18.420Z,2.42
2023-07-10T07:42:47.928Z,2.45
2023-07-10T07:45:16.384Z,2.58
2023-07-10T07:47:44.390Z,2.33
2023-07-10T07:50:12.034Z,2.75
2023-07-10T07:52:39.008Z,2.42
2023-07-10T07:55:07.213Z,2.20
2023-07-10T07:57:34.193Z,2.20
2023-07-10T08:00:01.223Z,2.35
2023-07-10T08:02:28.293Z,2.40
2023-07-10T08:04:55.458Z,2.20
2023-07-10T08:07:22.892Z,2.22
2023-07-10T08:09:52.480Z,2.53
2023-07-10T08:12:20.451Z,2.35
2023-07-10T08:14:47.690Z,2.80
2023-07-10T08:17:14.573Z,2.63
2023-07-10T08:19:41.489Z,2.63
2023-07-10T08:22:08.415Z,2.47
2023-07-10T08:24:36.047Z,3.17
2023-07-10T08:27:03.165Z,2.72
2023-07-10T08:29:32.106Z,2.42
2023-07-10T08:32:01.149Z,2.58
2023-07-10T08:34:30.761Z,2.85
2023-07-10T08:37:00.219Z,2.60
2023-07-10T08:39:27.612Z,1.83
2023-07-10T08:42:02.760Z,2.20
2023-07-10T08:44:38.290Z,2.80
2023-07-10T08:47:27.336Z,2.72
2023-07-10T08:50:06.270Z,2.58
2023-07-10T08:52:38.871Z,2.65
2023-07-10T08:55:13.969Z,2.92
2023-07-10T08:57:49.277Z,2.85
2023-07-10T09:00:17.059Z,2.85
2023-07-10T09:03:15.205Z,2.53
2023-07-10T09:05:48.749Z,3.17
2023-07-10T09:08:16.241Z,2.90
2023-07-10T09:10:53.124Z,3.20
2023-07-10T09:13:39.676Z,3.25
2023-07-10T09:16:19.198Z,3.00
2023-07-10T09:19:02.851Z,3.13
2023-07-10T09:21:33.661Z,3.42
2023-07-10T09:24:00.763Z,2.57
2023-07-10T09:26:31.122Z,3.33
2023-07-10T09:29:06.138Z,3.33
2023-07-10T09:31:54.833Z,3.28
2023-07-10T09:34:30.245Z,2.83
2023-07-10T09:36:58.937Z,3.30
2023-07-10T09:39:32.256Z,3.00
2023-07-10T09:42:01.146Z,3.50
2023-07-10T09:44:36.284Z,3.38
2023-07-10T09:47:12.030Z,3.58
2023-07-10T09:49:54.032Z,3.63
2023-07-10T09:52:26.173Z,3.30
2023-07-10T09:55:02.342Z,3.28
2023-07-10T09:57:31.029Z,3.20
2023-07-10T10:00:00.920Z,3.15
2023-07-10T10:02:51.109Z,3.50
2023-07-10T10:05:22.683Z,3.30
2023-07-10T10:07:51.918Z,2.83
2023-07-10T10:10:21.074Z,3.10
2023-07-10T10:12:57.882Z,3.33
2023-07-10T10:15:39.603Z,3.47
2023-07-10T10:18:15.013Z,3.30
2023-07-10T10:20:42.481Z,3.50
2023-07-10T10:23:32.516Z,3.65
2023-07-10T10:26:28.697Z,3.65
2023-07-10T10:29:06.517Z,3.10
2023-07-10T10:31:41.784Z,3.10
2023-07-10T10:34:24.351Z,3.35
2023-07-10T10:37:06.141Z,3.40
2023-07-10T10:39:39.342Z,3.30
2023-07-10T10:42:15.599Z,3.78
2023-07-10T10:45:07.759Z,3.35
2023-07-10T10:47:54.179Z,3.40
2023-07-10T10:50:36.955Z,3.80
2023-07-10T10:53:09.752Z,3.33
2023-07-10T10:55:57.359Z,3.60
2023-07-10T10:58:26.773Z,3.80
2023-07-10T11:00:56.659Z,3.72
2023-07-10T11:03:29.633Z,4.00
2023-07-10T11:06:02.823Z,3.78
2023-07-10T11:08:46.447Z,4.20
2023-07-10T11:11:34.281Z,3.60
2023-07-10T11:14:04.875Z,3.72
2023-07-10T11:16:34.483Z,3.97
2023-07-10T11:19:04.455Z,4.50
2023-07-10T11:21:32.661Z,3.97
2023-07-10T11:24:13.187Z,4.10
2023-07-10T11:26:40.133Z,4.35
2023-07-10T11:29:29.243Z,4.22
2023-07-10T11:31:59.223Z,4.28
2023-07-10T11:34:26.102Z,4.03
2023-07-10T11:36:53.117Z,4.03
2023-07-10T11:39:41.782Z,4.10
2023-07-10T11:42:18.585Z,4.28
2023-07-10T11:44:54.603Z,4.40
2023-07-10T11:47:28.576Z,4.03
2023-07-10T11:49:55.720Z,4.45
2023-07-10T11:52:22.613Z,4.43
2023-07-10T11:54:49.571Z,4.13
2023-07-10T11:57:24.759Z,4.22
2023-07-10T11:59:57.359Z,3.90
2023-07-10T12:02:41.143Z,4.28
2023-07-10T12:05:19.556Z,4.05
2023-07-10T12:07:54.386Z,4.13
2023-07-10T12:10:22.685Z,4.30
2023-07-10T12:12:51.039Z,4.40
2023-07-10T12:15:18.341Z,4.15
2023-07-10T12:17:45.418Z,4.10
2023-07-10T12:20:33.347Z,3.95
2023-07-10T12:23:05.645Z,4.03
2023-07-10T12:25:32.613Z,4.13
2023-07-10T12:30:36.030Z,4.43
2023-07-10T12:33:03.200Z,4.05
2023-07-10T12:35:37.030Z,4.13
2023-07-10T12:38:06.541Z,3.53
2023-07-10T12:40:34.028Z,3.80
2023-07-10T12:43:23.754Z,3.70
2023-07-10T12:46:13.433Z,3.70
2023-07-10T12:48:41.439Z,3.40
2023-07-10T12:51:09.418Z,3.20
2023-07-10T12:53:41.026Z,3.55
2023-07-10T12:56:26.632Z,3.40
2023-07-10T12:58:57.217Z,3.50
2023-07-10T13:01:34.067Z,3.85
2023-07-10T13:04:22.123Z,3.35
2023-07-10T13:07:20.089Z,3.95
2023-07-10T13:10:03.243Z,3.67
2023-07-10T13:12:37.444Z,4.03
2023-07-10T13:15:08.374Z,3.80
2023-07-10T13:17:39.205Z,4.10
2023-07-10T13:20:20.631Z,3.70
2023-07-10T13:22:47.663Z,3.45
2023-07-10T13:25:14.611Z,3.40
2023-07-10T13:27:41.871Z,3.13
2023-07-10T13:30:27.086Z,3.45
2023-07-10T13:32:54.284Z,3.03
2023-07-10T13:35:21.235Z,3.15
2023-07-10T13:37:48.309Z,3.53
2023-07-10T13:40:25.177Z,3.22
2023-07-10T13:42:52.384Z,3.20
2023-07-10T13:45:19.445Z,3.58
2023-07-10T13:47:46.420Z,3.83
2023-07-10T13:50:17.440Z,3.75
2023-07-10T13:52:44.824Z,3.83
2023-07-10T13:55:14.679Z,3.60
2023-07-10T13:57:41.787Z,3.75
2023-07-10T14:00:15.002Z,3.58
2023-07-10T14:02:44.566Z,3.22
2023-07-10T14:05:15.854Z,4.10
2023-07-10T14:07:44.387Z,3.28
2023-07-10T14:10:20.994Z,3.00
2023-07-10T14:12:48.123Z,2.90
2023-07-10T14:15:16.585Z,2.92
2023-07-10T14:17:43.810Z,3.25
2023-07-10T14:20:23.030Z,2.90
2023-07-10T14:22:50.096Z,3.05
2023-07-10T14:25:23.448Z,3.10
2023-07-10T14:27:50.499Z,2.80
2023-07-10T14:30:21.279Z,3.25
2023-07-10T14:32:48.902Z,3.15
2023-07-10T14:35:21.121Z,3.08
2023-07-10T14:37:50.276Z,3.15
2023-07-10T14:40:18.700Z,3.33
2023-07-10T14:42:46.534Z,3.22
2023-07-10T14:45:17.832Z,3.00
2023-07-10T14:47:46.774Z,3.40
2023-07-10T14:50:14.636Z,3.00
2023-07-10T14:52:43.998Z,2.88
2023-07-10T14:55:17.487Z,2.63
2023-07-10T14:57:44.925Z,2.67
2023-07-10T15:00:27.572Z,2.83
2023-07-10T15:02:55.369Z,2.80
2023-07-10T15:05:24.749Z,2.95
2023-07-10T15:07:57.553Z,3.17
2023-07-10T15:12:57.990Z,2.38
2023-07-10T15:15:31.871Z,2.78
2023-07-10T15:17:59.240Z,3.28
2023-07-10T15:20:26.128Z,3.20
2023-07-10T15:22:53.101Z,3.00
2023-07-10T15:25:26.218Z,2.83
2023-07-10T15:27:53.443Z,2.60
2023-07-10T15:30:22.242Z,2.78
2023-07-10T15:32:51.488Z,2.25
2023-07-10T15:35:21.295Z,2.90
2023-07-10T15:37:48.953Z,2.63
2023-07-10T15:40:21.723Z,2.80
2023-07-10T15:42:51.089Z,2.15
2023-07-10T15:45:19.550Z,2.60
2023-07-10T15:47:49.388Z,2.50
2023-07-10T15:50:17.821Z,2.80
2023-07-10T15:52:48.270Z,2.42
2023-07-10T15:55:30.769Z,1.80
2023-07-10T15:57:57.947Z,2.00
2023-07-10T16:00:27.560Z,2.08
2023-07-10T16:02:55.843Z,2.20
2023-07-10T16:05:22.834Z,1.90
2023-07-10T16:07:54.690Z,1.63
2023-07-10T16:10:23.161Z,2.10
2023-07-10T16:12:52.331Z,2.05
2023-07-10T16:15:25.356Z,1.75
2023-07-10T16:17:53.990Z,2.10
2023-07-10T16:20:25.351Z,1.80
2023-07-10T16:23:05.115Z,2.47
2023-07-10T16:25:32.553Z,2.00
2023-07-10T16:27:59.476Z,2.10
2023-07-10T16:30:27.843Z,2.20
2023-07-10T16:32:54.908Z,2.00
2023-07-10T16:35:25.439Z,2.45
2023-07-10T16:37:53.571Z,2.20
2023-07-10T16:40:23.869Z,2.10
2023-07-10T16:43:01.043Z,1.75
2023-07-10T16:45:30.805Z,1.90
2023-07-10T16:47:58.342Z,1.88
2023-07-10T16:50:26.286Z,1.70
2023-07-10T16:52:53.675Z,1.60
2023-07-10T16:55:23.997Z,1.92
2023-07-10T16:57:53.451Z,1.75
2023-07-10T17:00:26.309Z,1.60
2023-07-10T17:02:55.258Z,1.42
2023-07-10T17:05:22.193Z,1.70
2023-07-10T17:07:49.045Z,1.50
2023-07-10T17:10:16.550Z,1.50
2023-07-10T17:12:45.029Z,1.70
2023-07-10T17:15:16.267Z,1.83
2023-07-10T17:17:43.568Z,1.50
2023-07-10T17:20:15.351Z,2.20
2023-07-10T17:22:42.497Z,1.90
2023-07-10T17:25:17.728Z,2.00
2023-07-10T17:27:45.106Z,1.92
2023-07-10T17:30:16.946Z,2.10
2023-07-10T17:35:18.533Z,2.08
2023-07-10T17:37:51.376Z,1.85
2023-07-10T17:40:18.478Z,2.03
2023-07-10T17:42:48.010Z,2.22
2023-07-10T17:45:18.714Z,2.22
2023-07-10T17:47:46.467Z,2.22
2023-07-10T17:50:18.025Z,2.00
2023-07-10T17:52:47.297Z,2.10
2023-07-10T17:55:19.878Z,1.80
2023-07-10T17:57:49.679Z,2.03
2023-07-10T18:00:18.339Z,2.10
2023-07-10T18:02:47.526Z,2.10
2023-07-10T18:05:25.481Z,1.92
2023-07-10T18:07:55.275Z,2.17
2023-07-10T18:10:26.984Z,2.08
2023-07-10T18:12:54.506Z,2.20
2023-07-10T18:15:21.474Z,2.05
2023-07-10T18:17:48.590Z,2.20
2023-07-10T18:20:17.764Z,1.75
2023-07-10T18:22:45.108Z,2.33
2023-07-10T18:25:20.076Z,2.15
2023-07-10T18:27:47.750Z,1.92
2023-07-10T18:30:18.718Z,2.10
2023-07-10T18:32:46.071Z,2.22
2023-07-10T18:35:18.464Z,2.05
2023-07-10T18:37:46.672Z,2.50
2023-07-10T18:40:14.198Z,2.13
2023-07-10T18:42:41.256Z,2.00
2023-07-10T18:45:18.829Z,2.22
2023-07-10T18:47:45.864Z,2.10
2023-07-10T18:50:17.078Z,2.20
2023-07-10T18:52:44.524Z,2.38
2023-07-10T18:55:16.459Z,2.13
2023-07-10T19:00:22.450Z,1.95
2023-07-10T19:02:51.021Z,2.00
2023-07-10T19:05:18.001Z,2.08
2023-07-10T19:07:45.031Z,2.22
2023-07-10T19:10:20.159Z,2.42
2023-07-10T19:12:51.036Z,2.20
2023-07-10T19:15:17.862Z,2.25
2023-07-10T19:17:47.065Z,2.17
2023-07-10T19:20:23.161Z,2.45
2023-07-10T19:22:54.326Z,2.15
2023-07-10T19:25:23.137Z,2.25
2023-07-10T19:27:50.395Z,2.42
2023-07-10T19:30:18.723Z,1.95
2023-07-10T19:32:48.334Z,2.05
2023-07-10T19:35:17.787Z,2.40
2023-07-10T19:37:45.817Z,2.28
2023-07-10T19:40:20.971Z,1.90
2023-07-10T19:42:48.045Z,2.22
2023-07-10T19:45:19.811Z,2.30
2023-07-10T19:47:46.728Z,2.30
2023-07-10T19:50:19.899Z,2.00
2023-07-10T19:52:47.752Z,2.30
2023-07-10T19:55:16.667Z,2.03
2023-07-10T19:57:50.049Z,2.17
2023-07-10T20:00:27.461Z,2.20
2023-07-10T20:02:54.565Z,2.05
2023-07-10T20:05:21.588Z,2.10
2023-07-10T20:07:48.652Z,2.40
2023-07-10T20:10:22.868Z,2.45
2023-07-10T20:12:50.563Z,2.20
2023-07-10T20:15:17.794Z,2.55
2023-07-10T20:17:47.991Z,2.45
2023-07-10T20:20:27.148Z,2.33
2023-07-10T20:22:55.523Z,2.08
2023-07-10T20:25:22.476Z,2.30
2023-07-10T20:27:49.791Z,2.08
2023-07-10T20:30:21.941Z,2.55
2023-07-10T20:32:49.235Z,2.20
2023-07-10T20:35:17.730Z,2.20
2023-07-10T20:37:46.557Z,2.33
2023-07-10T20:40:16.270Z,2.70
2023-07-10T20:42:43.347Z,2.40
2023-07-10T20:45:14.998Z,2.15
2023-07-10T20:47:48.771Z,2.22
2023-07-10T20:50:16.378Z,2.40
2023-07-10T20:52:45.543Z,2.65
2023-07-10T20:55:15.541Z,2.13
2023-07-10T20:57:42.631Z,2.30
2023-07-10T21:00:17.565Z,2.60
2023-07-10T21:02:44.794Z,2.80
2023-07-10T21:05:11.932Z,2.13
2023-07-10T21:07:39.309Z,2.00
2023-07-10T21:10:07.505Z,2.20
2023-07-10T21:12:34.533Z,3.15
2023-07-10T21:15:01.572Z,2.40
2023-07-10T21:17:33.008Z,1.90
2023-07-10T21:20:01.812Z,2.03
2023-07-10T21:22:32.832Z,1.98
2023-07-10T21:24:59.941Z,2.00
2023-07-10T21:27:30.399Z,2.10
2023-07-10T21:30:18.682Z,2.50
2023-07-10T21:32:46.395Z,2.30
2023-07-10T21:35:31.148Z,2.25
2023-07-10T21:37:58.197Z,2.40
2023-07-10T21:40:25.361Z,2.42
2023-07-10T21:42:52.628Z,2.30
2023-07-10T21:45:19.905Z,2.30
2023-07-10T21:47:46.896Z,2.10
2023-07-10T21:50:16.188Z,2.30
2023-07-10T21:52:43.177Z,2.20
2023-07-10T21:55:13.327Z,2.75
2023-07-10T21:57:40.677Z,2.30
2023-07-10T22:00:09.704Z,2.30
2023-07-10T22:02:36.707Z,1.92
2023-07-10T22:05:12.800Z,2.35
2023-07-10T22:07:39.760Z,2.58
2023-07-10T22:10:06.968Z,2.30
2023-07-10T22:12:34.526Z,2.53
2023-07-10T22:15:01.457Z,2.75
2023-07-10T22:17:31.995Z,2.30
2023-07-10T22:19:58.935Z,2.30
2023-07-10T22:22:26.312Z,2.75
2023-07-10T22:24:53.154Z,2.30
2023-07-10T22:27:20.082Z,2.38
2023-07-10T22:29:47.043Z,2.40
2023-07-10T22:32:14.030Z,2.15
2023-07-10T22:34:41.117Z,2.20
2023-07-10T22:37:11.003Z,2.13
2023-07-10T22:39:37.915Z,2.50
2023-07-10T22:42:05.089Z,2.70
2023-07-10T22:44:32.158Z,2.47
2023-07-10T22:47:01.516Z,2.38
2023-07-10T22:49:28.566Z,2.20
2023-07-10T22:51:55.565Z,2.75
2023-07-10T22:54:22.450Z,2.10
2023-07-10T22:56:49.338Z,2.60
2023-07-10T22:59:20.211Z,2.10
2023-07-10T23:01:50.013Z,2.40
2023-07-10T23:04:19.070Z,2.08
2023-07-10T23:06:46.334Z,2.03
2023-07-10T23:09:13.594Z,2.10
2023-07-10T23:11:40.513Z,2.30
2023-07-10T23:14:08.191Z,2.50
2023-07-10T23:16:35.953Z,1.80
2023-07-10T23:19:02.984Z,2.20
2023-07-10T23:21:30.215Z,2.08
2023-07-10T23:23:57.388Z,2.60
2023-07-10T23:26:26.530Z,2.20
2023-07-10T23:28:53.734Z,2.60
2023-07-10T23:31:29.699Z,2.10
2023-07-10T23:33:57.059Z,2.28
2023-07-10T23:36:28.083Z,1.90
2023-07-10T23:38:59.753Z,2.10
2023-07-10T23:41:26.782Z,2.03
2023-07-10T23:43:53.668Z,2.00
2023-07-10T23:46:20.555Z,2.00
2023-07-10T23:48:47.777Z,2.00
2023-07-10T23:51:15.021Z,2.38
2023-07-10T23:53:42.332Z,2.15
2023-07-10T23:56:09.802Z,2.00
2023-07-10T23:58:37.770Z,2.00
